createdAt,value
2019-05-12T00:01:13.471Z,95.87
2019-05-12T00:03:40.298Z,96.20
2019-05-12T00:06:08.770Z,95.79
2019-05-12T00:08:33.915Z,95.83
2019-05-12T00:11:00.739Z,95.81
2019-05-12T00:13:27.945Z,95.24
2019-05-12T00:15:54.386Z,94.92
2019-05-12T00:18:21.182Z,95.46
2019-05-12T00:20:47.986Z,94.36
2019-05-12T00:23:25.069Z,94.46
2019-05-12T00:25:41.607Z,94.21
2019-05-12T00:28:08.426Z,93.57
2019-05-12T00:30:38.911Z,93.90
2019-05-12T00:33:03.880Z,94.03
2019-05-12T00:35:30.690Z,94.17
2019-05-12T00:37:57.859Z,94.23
2019-05-12T00:40:24.318Z,95.30
2019-05-12T00:42:51.130Z,93.58
2019-05-12T00:45:18.152Z,94.97
2019-05-12T00:47:44.730Z,95.25
2019-05-12T00:50:11.542Z,95.39
2019-05-12T00:52:38.738Z,94.76
2019-05-12T00:55:07.673Z,94.68
2019-05-12T00:57:32.042Z,95.33
2019-05-12T00:59:58.838Z,95.24
2019-05-12T01:02:25.642Z,96.69
2019-05-12T01:04:52.451Z,96.90
2019-05-12T01:07:19.266Z,96.81
2019-05-12T01:09:46.075Z,96.83
2019-05-12T01:12:12.991Z,96.49
2019-05-12T01:14:39.802Z,95.61
2019-05-12T01:17:08.410Z,96.30
2019-05-12T01:19:33.483Z,95.76
2019-05-12T01:22:00.298Z,95.25
2019-05-12T01:24:28.151Z,96.00
2019-05-12T01:26:53.935Z,95.60
2019-05-12T01:29:20.742Z,95.57
2019-05-12T01:31:53.269Z,95.82
2019-05-12T01:34:20.080Z,97.17
2019-05-12T01:36:48.314Z,97.61
2019-05-12T01:39:13.704Z,98.62
2019-05-12T01:41:40.517Z,97.87
2019-05-12T01:44:08.862Z,97.13
2019-05-12T01:46:34.139Z,96.59
2019-05-12T01:49:00.943Z,96.74
2019-05-12T01:51:28.436Z,96.32
2019-05-12T01:54:08.649Z,95.89
2019-05-12T01:56:21.410Z,96.44
2019-05-12T01:58:48.484Z,96.99
2019-05-12T02:01:15.046Z,97.07
2019-05-12T02:03:41.858Z,97.14
2019-05-12T02:06:11.774Z,96.99
2019-05-12T02:08:43.177Z,96.00
2019-05-12T02:11:18.097Z,95.74
2019-05-12T02:13:42.551Z,95.26
2019-05-12T02:16:09.379Z,96.14
2019-05-12T02:18:38.104Z,94.78
2019-05-12T02:21:03.066Z,94.08
2019-05-12T02:23:29.826Z,93.80
2019-05-12T02:25:58.537Z,94.33
2019-05-12T02:28:23.508Z,95.18
2019-05-12T02:30:50.554Z,94.41
2019-05-12T02:33:17.142Z,94.28
2019-05-12T02:35:44.501Z,94.70
2019-05-12T02:38:10.756Z,94.70
2019-05-12T02:40:37.595Z,95.30
2019-05-12T02:43:05.638Z,95.19
2019-05-12T02:45:31.229Z,95.40
2019-05-12T02:47:58.046Z,96.03
2019-05-12T02:50:35.085Z,93.79
2019-05-12T02:52:58.747Z,94.79
2019-05-12T02:55:25.855Z,95.41
2019-05-12T02:57:55.005Z,94.73
2019-05-12T03:00:19.150Z,95.26
2019-05-12T03:02:45.957Z,95.70
2019-05-12T03:05:14.815Z,95.88
2019-05-12T03:07:39.558Z,95.90
2019-05-12T03:10:06.632Z,96.42
2019-05-12T03:12:34.435Z,96.87
2019-05-12T03:15:00.276Z,96.94
2019-05-12T03:17:27.074Z,95.76
2019-05-12T03:19:55.680Z,97.56
2019-05-12T03:22:20.700Z,96.84
2019-05-12T03:25:05.074Z,96.58
2019-05-12T03:27:17.430Z,98.05
2019-05-12T03:29:41.115Z,97.00
2019-05-12T03:32:08.734Z,97.42
2019-05-12T03:34:38.387Z,98.39
2019-05-12T03:37:07.096Z,97.73
2019-05-12T03:39:28.327Z,96.76
2019-05-12T03:41:55.148Z,96.99
2019-05-12T03:44:25.003Z,96.73
2019-05-12T03:46:48.759Z,98.66
2019-05-12T03:49:15.777Z,99.18
2019-05-12T03:51:45.326Z,99.33
2019-05-12T03:54:09.180Z,99.53
2019-05-12T03:56:35.988Z,100.00
2019-05-12T03:59:04.802Z,100.00
2019-05-12T04:01:30.259Z,100.00
2019-05-12T04:03:57.075Z,100.00
2019-05-12T04:06:24.724Z,100.00
2019-05-12T04:08:50.699Z,100.00
2019-05-12T04:11:17.633Z,99.50
2019-05-12T04:13:45.129Z,99.98
2019-05-12T04:16:11.309Z,98.94
2019-05-12T04:18:38.100Z,98.88
2019-05-12T04:21:05.710Z,97.43
2019-05-12T04:23:34.707Z,95.92
2019-05-12T04:26:08.670Z,95.11
2019-05-12T04:28:25.336Z,92.54
2019-05-12T04:30:54.557Z,91.60
2019-05-12T04:33:19.048Z,91.58
2019-05-12T04:35:45.856Z,91.98
2019-05-12T04:38:14.906Z,90.22
2019-05-12T04:40:39.483Z,90.36
2019-05-12T04:43:06.945Z,90.34
2019-05-12T04:45:34.718Z,88.61
2019-05-12T04:47:59.896Z,89.98
2019-05-12T04:50:26.708Z,90.63
2019-05-12T04:52:54.912Z,89.34
2019-05-12T04:55:20.392Z,89.47
2019-05-12T04:57:47.206Z,89.22
2019-05-12T05:00:15.891Z,90.43
2019-05-12T05:02:40.832Z,90.68
2019-05-12T05:05:07.646Z,89.59
2019-05-12T05:07:35.859Z,89.51
2019-05-12T05:10:04.488Z,89.76
2019-05-12T05:12:28.147Z,90.60
2019-05-12T05:14:55.001Z,90.39
2019-05-12T05:17:24.205Z,89.66
2019-05-12T05:19:48.574Z,88.00
2019-05-12T05:22:15.396Z,88.79
2019-05-12T05:24:44.311Z,88.95
2019-05-12T05:27:09.018Z,88.74
2019-05-12T05:29:37.210Z,89.42
2019-05-12T05:32:03.502Z,88.52
2019-05-12T05:34:29.486Z,87.84
2019-05-12T05:37:01.378Z,87.50
2019-05-12T05:39:24.289Z,88.31
2019-05-12T05:41:51.174Z,88.17
2019-05-12T05:44:16.738Z,88.18
2019-05-12T05:46:48.160Z,87.29
2019-05-12T05:49:10.330Z,86.33
2019-05-12T05:51:39.478Z,86.11
2019-05-12T05:54:04.117Z,88.07
2019-05-12T05:56:39.889Z,87.89
2019-05-12T05:58:57.614Z,86.37
2019-05-12T06:01:24.682Z,87.86
2019-05-12T06:03:53.160Z,87.15
2019-05-12T06:06:18.098Z,84.44
2019-05-12T06:08:56.474Z,86.39
2019-05-12T06:11:28.220Z,87.56
2019-05-12T06:13:50.143Z,89.89
2019-05-12T06:16:20.627Z,86.67
2019-05-12T06:18:44.096Z,87.05
2019-05-12T06:21:10.526Z,86.87
2019-05-12T06:23:39.241Z,85.71
2019-05-12T06:26:04.767Z,85.94
2019-05-12T06:28:36.198Z,86.36
2019-05-12T06:30:58.286Z,85.89
2019-05-12T06:33:31.313Z,85.58
2019-05-12T06:35:51.374Z,86.61
2019-05-12T06:38:18.182Z,84.94
2019-05-12T06:40:45.592Z,84.02
2019-05-12T06:43:13.938Z,84.50
2019-05-12T06:45:42.631Z,83.46
2019-05-12T06:48:05.386Z,83.84
2019-05-12T06:50:36.971Z,83.14
2019-05-12T06:52:59.361Z,81.86
2019-05-12T06:55:28.536Z,81.74
2019-05-12T06:57:53.989Z,81.85
2019-05-12T07:00:22.223Z,80.08
2019-05-12T07:02:52.352Z,78.07
2019-05-12T07:05:14.646Z,81.14
2019-05-12T07:07:46.130Z,79.07
2019-05-12T07:10:11.703Z,78.16
2019-05-12T07:12:43.627Z,80.08
2019-05-12T07:15:00.638Z,76.57
2019-05-12T07:17:35.451Z,79.64
2019-05-12T07:19:59.857Z,80.98
2019-05-12T07:22:31.798Z,80.45
2019-05-12T07:24:54.802Z,82.37
2019-05-12T07:27:33.754Z,80.31
2019-05-12T07:29:47.081Z,81.30
2019-05-12T07:32:16.460Z,80.51
2019-05-12T07:34:40.690Z,79.94
2019-05-12T07:37:07.498Z,80.81
2019-05-12T07:39:39.313Z,79.13
2019-05-12T07:42:03.492Z,78.01
2019-05-12T07:44:34.397Z,78.07
2019-05-12T07:46:54.978Z,77.97
2019-05-12T07:49:32.419Z,76.23
2019-05-12T07:51:50.142Z,78.13
2019-05-12T07:54:15.366Z,80.17
2019-05-12T07:56:44.236Z,77.97
2019-05-12T07:59:08.954Z,76.09
2019-05-12T08:01:44.108Z,75.88
2019-05-12T08:04:04.377Z,76.17
2019-05-12T08:06:34.705Z,76.60
2019-05-12T08:08:58.998Z,77.85
2019-05-12T08:11:23.581Z,76.33
2019-05-12T08:13:49.739Z,75.81
2019-05-12T08:16:19.602Z,76.79
2019-05-12T08:18:44.483Z,76.05
2019-05-12T08:21:10.114Z,76.05
2019-05-12T08:23:38.047Z,76.25
2019-05-12T08:26:12.253Z,75.53
2019-05-12T08:28:36.185Z,76.67
2019-05-12T08:30:57.330Z,76.26
2019-05-12T08:33:24.170Z,75.93
2019-05-12T08:35:50.982Z,77.44
2019-05-12T08:38:17.794Z,75.62
2019-05-12T08:40:50.668Z,75.64
2019-05-12T08:43:11.512Z,76.20
2019-05-12T08:45:38.322Z,74.08
2019-05-12T08:48:10.240Z,75.54
2019-05-12T08:50:35.802Z,76.44
2019-05-12T08:52:59.104Z,76.88
2019-05-12T08:55:31.275Z,76.16
2019-05-12T08:57:54.160Z,77.06
2019-05-12T09:00:31.302Z,76.51
2019-05-12T09:02:58.124Z,74.27
2019-05-12T09:05:28.062Z,74.58
2019-05-12T09:07:53.987Z,73.12
2019-05-12T09:10:18.786Z,72.86
2019-05-12T09:12:45.570Z,73.04
2019-05-12T09:15:13.612Z,71.68
2019-05-12T09:17:51.504Z,73.85
2019-05-12T09:20:08.377Z,72.18
2019-05-12T09:22:34.291Z,72.60
2019-05-12T09:25:06.185Z,73.18
2019-05-12T09:27:26.514Z,76.75
2019-05-12T09:29:53.998Z,73.87
2019-05-12T09:32:20.082Z,74.15
2019-05-12T09:34:52.589Z,74.23
2019-05-12T09:37:14.241Z,74.98
2019-05-12T09:39:43.601Z,73.21
2019-05-12T09:42:07.298Z,74.57
2019-05-12T09:44:34.242Z,76.07
2019-05-12T09:47:00.962Z,75.54
2019-05-12T09:49:30.920Z,74.39
2019-05-12T09:51:54.558Z,75.51
2019-05-12T09:54:26.200Z,73.59
2019-05-12T09:56:50.096Z,74.69
2019-05-12T09:59:22.778Z,73.73
2019-05-12T10:01:45.750Z,72.35
2019-05-12T10:04:10.275Z,74.42
2019-05-12T10:06:35.366Z,74.05
2019-05-12T10:09:03.473Z,72.42
2019-05-12T10:11:29.259Z,73.41
2019-05-12T10:14:00.297Z,73.85
2019-05-12T10:16:24.121Z,71.83
2019-05-12T10:18:52.792Z,71.85
2019-05-12T10:21:17.630Z,70.82
2019-05-12T10:23:43.621Z,71.24
2019-05-12T10:26:11.680Z,72.23
2019-05-12T10:28:36.822Z,70.84
2019-05-12T10:31:04.144Z,68.45
2019-05-12T10:33:30.437Z,70.55
2019-05-12T10:35:59.285Z,68.59
2019-05-12T10:38:24.232Z,68.09
2019-05-12T10:40:50.827Z,67.99
2019-05-12T10:43:17.618Z,67.37
2019-05-12T10:45:44.411Z,68.10
2019-05-12T10:48:11.206Z,68.48
2019-05-12T10:50:38.003Z,66.30
2019-05-12T10:53:04.913Z,67.81
2019-05-12T10:55:33.543Z,71.48
2019-05-12T10:58:01.544Z,67.99
2019-05-12T11:00:26.884Z,71.03
2019-05-12T11:02:53.473Z,70.98
2019-05-12T11:05:25.464Z,69.77
2019-05-12T11:07:45.607Z,72.17
2019-05-12T11:10:19.459Z,69.67
2019-05-12T11:12:39.198Z,68.77
2019-05-12T11:15:06.803Z,69.79
2019-05-12T11:17:40.224Z,70.86
2019-05-12T11:20:05.496Z,66.83
2019-05-12T11:22:33.334Z,64.93
2019-05-12T11:24:59.082Z,65.99
2019-05-12T11:27:25.891Z,66.37
2019-05-12T11:29:53.428Z,65.75
2019-05-12T11:32:19.486Z,66.83
2019-05-12T11:34:46.295Z,65.17
2019-05-12T11:37:13.926Z,67.11
2019-05-12T11:39:44.610Z,64.66
2019-05-12T11:42:07.117Z,65.59
2019-05-12T11:44:33.938Z,64.26
2019-05-12T11:47:00.738Z,64.83
2019-05-12T11:49:28.140Z,62.26
2019-05-12T11:51:54.567Z,60.28
2019-05-12T11:54:24.079Z,64.31
2019-05-12T11:56:50.335Z,64.88
2019-05-12T11:59:15.265Z,62.02
2019-05-12T12:01:47.467Z,61.46
2019-05-12T12:04:08.846Z,60.41
2019-05-12T12:06:35.642Z,61.13
2019-05-12T12:09:03.934Z,60.05
2019-05-12T12:11:29.470Z,62.88
2019-05-12T12:14:00.296Z,63.08
2019-05-12T12:16:23.717Z,64.02
2019-05-12T12:18:59.573Z,65.12
2019-05-12T12:21:16.653Z,68.38
2019-05-12T12:23:48.794Z,66.87
2019-05-12T12:26:10.254Z,67.31
2019-05-12T12:28:37.053Z,65.93
2019-05-12T12:31:07.614Z,64.03
2019-05-12T12:33:38.648Z,64.74
2019-05-12T12:36:00.679Z,64.92
2019-05-12T12:38:25.385Z,65.42
2019-05-12T12:40:53.569Z,61.18
2019-05-12T12:43:18.994Z,60.25
2019-05-12T12:45:49.435Z,62.13
2019-05-12T12:48:19.335Z,58.95
2019-05-12T12:50:44.559Z,62.10
2019-05-12T12:53:09.846Z,60.52
2019-05-12T12:55:38.054Z,61.00
2019-05-12T12:58:03.496Z,63.96
2019-05-12T13:00:40.696Z,56.88
2019-05-12T13:02:57.053Z,56.62
2019-05-12T13:05:24.005Z,60.26
2019-05-12T13:07:50.647Z,58.46
2019-05-12T13:10:17.478Z,57.80
2019-05-12T13:12:44.274Z,57.34
2019-05-12T13:15:11.074Z,59.71
2019-05-12T13:17:41.743Z,57.42
2019-05-12T13:20:04.746Z,57.38
2019-05-12T13:22:33.649Z,60.92
2019-05-12T13:25:04.339Z,58.48
2019-05-12T13:27:29.059Z,61.50
2019-05-12T13:29:53.741Z,55.98
2019-05-12T13:32:25.842Z,54.95
2019-05-12T13:34:45.890Z,56.95
2019-05-12T13:37:15.450Z,55.61
2019-05-12T13:39:39.514Z,58.75
2019-05-12T13:42:06.309Z,55.52
2019-05-12T13:44:38.736Z,55.58
2019-05-12T13:46:59.921Z,51.78
2019-05-12T13:49:29.942Z,55.88
2019-05-12T13:51:53.882Z,53.04
2019-05-12T13:54:26.053Z,52.80
2019-05-12T13:56:47.170Z,56.00
2019-05-12T13:59:20.569Z,53.92
2019-05-12T14:01:42.834Z,55.80
2019-05-12T14:04:07.599Z,54.30
2019-05-12T14:06:37.857Z,52.32
2019-05-12T14:09:01.202Z,55.33
2019-05-12T14:11:28.082Z,54.33
2019-05-12T14:13:54.874Z,52.40
2019-05-12T14:16:23.846Z,55.94
2019-05-12T14:18:51.068Z,52.52
2019-05-12T14:21:15.263Z,49.23
2019-05-12T14:23:43.653Z,53.46
2019-05-12T14:26:09.430Z,51.92
2019-05-12T14:28:39.420Z,51.42
2019-05-12T14:31:02.758Z,56.09
2019-05-12T14:33:29.806Z,52.63
2019-05-12T14:35:56.354Z,51.35
2019-05-12T14:38:25.420Z,52.29
2019-05-12T14:40:50.000Z,55.96
2019-05-12T14:43:21.268Z,53.22
2019-05-12T14:45:44.092Z,54.50
2019-05-12T14:48:10.454Z,56.21
2019-05-12T14:50:37.250Z,51.57
2019-05-12T14:53:04.046Z,54.93
2019-05-12T14:55:30.916Z,51.13
2019-05-12T14:57:57.718Z,51.27
2019-05-12T15:00:24.522Z,51.68
2019-05-12T15:02:51.414Z,51.96
2019-05-12T15:05:18.186Z,56.48
2019-05-12T15:07:51.798Z,51.62
2019-05-12T15:10:13.994Z,49.85
2019-05-12T15:12:38.704Z,52.73
2019-05-12T15:15:09.193Z,52.97
2019-05-12T15:17:33.759Z,52.70
2019-05-12T15:20:00.390Z,50.46
2019-05-12T15:22:26.155Z,53.29
2019-05-12T15:24:57.001Z,51.82
2019-05-12T15:27:19.774Z,49.00
2019-05-12T15:29:49.913Z,50.71
2019-05-12T15:32:15.278Z,53.00
2019-05-12T15:34:40.314Z,50.93
2019-05-12T15:37:07.174Z,52.88
2019-05-12T15:39:33.991Z,49.93
2019-05-12T15:42:00.794Z,51.49
2019-05-12T15:44:31.324Z,51.24
2019-05-12T15:46:54.404Z,52.82
2019-05-12T15:49:21.212Z,50.70
2019-05-12T15:51:54.086Z,50.61
2019-05-12T15:54:14.938Z,51.37
2019-05-12T15:56:41.814Z,55.47
2019-05-12T15:59:08.625Z,54.07
2019-05-12T16:01:35.434Z,50.91
2019-05-12T16:04:03.676Z,49.19
2019-05-12T16:06:29.126Z,51.03
2019-05-12T16:08:56.206Z,49.67
2019-05-12T16:11:24.413Z,50.39
2019-05-12T16:13:54.662Z,53.49
2019-05-12T16:16:16.613Z,50.21
2019-05-12T16:18:48.937Z,48.92
2019-05-12T16:21:10.306Z,50.87
2019-05-12T16:23:37.183Z,48.79
2019-05-12T16:26:08.080Z,50.43
2019-05-12T16:28:30.791Z,48.15
2019-05-12T16:30:58.794Z,50.34
2019-05-12T16:33:24.390Z,51.36
2019-05-12T16:35:51.344Z,49.58
2019-05-12T16:38:20.037Z,50.14
2019-05-12T16:40:49.584Z,48.34
2019-05-12T16:43:14.300Z,48.90
2019-05-12T16:45:38.918Z,50.34
2019-05-12T16:48:11.317Z,47.54
2019-05-12T16:50:34.499Z,46.97
2019-05-12T16:52:59.415Z,50.21
2019-05-12T16:55:26.222Z,47.93
2019-05-12T16:57:56.002Z,48.50
2019-05-12T17:00:19.930Z,48.07
2019-05-12T17:02:53.638Z,45.00
2019-05-12T17:05:20.212Z,47.62
2019-05-12T17:07:40.344Z,49.19
2019-05-12T17:10:11.507Z,47.98
2019-05-12T17:12:37.109Z,47.97
2019-05-12T17:15:00.869Z,48.13
2019-05-12T17:17:28.522Z,50.29
2019-05-12T17:19:55.376Z,48.46
2019-05-12T17:22:23.938Z,49.00
2019-05-12T17:24:49.109Z,48.02
2019-05-12T17:27:23.872Z,45.76
2019-05-12T17:29:43.519Z,46.12
2019-05-12T17:32:09.606Z,48.19
2019-05-12T17:34:40.366Z,48.11
2019-05-12T17:37:04.011Z,47.39
2019-05-12T17:39:37.308Z,48.32
2019-05-12T17:41:56.898Z,45.97
2019-05-12T17:44:23.735Z,46.74
2019-05-12T17:46:50.623Z,46.60
2019-05-12T17:49:25.582Z,45.52
2019-05-12T17:51:44.306Z,44.78
2019-05-12T17:54:15.690Z,47.50
2019-05-12T17:56:38.828Z,46.73
2019-05-12T17:59:04.860Z,48.76
2019-05-12T18:01:35.405Z,48.56
2019-05-12T18:03:58.589Z,50.98
2019-05-12T18:06:26.740Z,52.22
2019-05-12T18:08:53.368Z,55.72
2019-05-12T18:11:19.062Z,55.04
2019-05-12T18:13:45.871Z,53.85
2019-05-12T18:16:20.420Z,53.33
2019-05-12T18:18:39.542Z,53.85
2019-05-12T18:21:06.365Z,55.11
2019-05-12T18:23:34.527Z,55.11
2019-05-12T18:26:02.986Z,56.10
2019-05-12T18:28:29.442Z,54.81
2019-05-12T18:30:54.726Z,55.17
2019-05-12T18:33:32.596Z,55.29
2019-05-12T18:35:48.374Z,54.31
2019-05-12T18:38:21.536Z,55.08
2019-05-12T18:40:42.036Z,54.50
2019-05-12T18:43:08.870Z,55.85
2019-05-12T18:45:35.688Z,53.29
2019-05-12T18:48:10.151Z,55.63
2019-05-12T18:50:31.393Z,56.88
2019-05-12T18:52:56.134Z,57.85
2019-05-12T18:55:23.542Z,58.79
2019-05-12T18:57:50.140Z,58.43
2019-05-12T19:00:17.378Z,59.05
2019-05-12T19:02:44.326Z,58.59
2019-05-12T19:05:12.966Z,58.07
2019-05-12T19:07:39.963Z,57.83
2019-05-12T19:10:05.150Z,59.61
2019-05-12T19:12:35.217Z,59.61
2019-05-12T19:14:58.754Z,60.29
2019-05-12T19:17:25.553Z,60.75
2019-05-12T19:19:59.623Z,62.44
2019-05-12T19:22:19.138Z,63.32
2019-05-12T19:24:50.146Z,62.28
2019-05-12T19:27:18.023Z,60.78
2019-05-12T19:29:46.647Z,61.94
2019-05-12T19:32:06.518Z,62.03
2019-05-12T19:34:37.378Z,61.75
2019-05-12T19:37:00.151Z,62.06
2019-05-12T19:39:26.945Z,62.06
2019-05-12T19:41:54.322Z,62.47
2019-05-12T19:44:26.359Z,63.40
2019-05-12T19:46:49.466Z,65.47
2019-05-12T19:49:14.150Z,66.62
2019-05-12T19:51:41.071Z,67.17
2019-05-12T19:54:07.883Z,67.25
2019-05-12T19:56:39.011Z,72.19
2019-05-12T19:59:01.494Z,71.56
2019-05-12T20:01:32.894Z,70.58
2019-05-12T20:03:55.851Z,70.33
2019-05-12T20:06:24.159Z,71.46
2019-05-12T20:08:55.689Z,70.03
2019-05-12T20:11:20.026Z,68.46
2019-05-12T20:13:44.501Z,67.56
2019-05-12T20:16:11.482Z,68.15
2019-05-12T20:18:43.103Z,66.27
2019-05-12T20:21:04.418Z,65.76
2019-05-12T20:23:30.306Z,65.98
2019-05-12T20:25:57.122Z,65.20
2019-05-12T20:28:24.413Z,66.16
2019-05-12T20:30:54.395Z,65.21
2019-05-12T20:33:17.582Z,65.24
2019-05-12T20:35:48.939Z,66.34
2019-05-12T20:38:11.191Z,66.82
2019-05-12T20:40:39.888Z,69.15
2019-05-12T20:43:08.307Z,70.37
2019-05-12T20:45:40.496Z,70.06
2019-05-12T20:48:00.609Z,72.50
2019-05-12T20:50:32.930Z,71.77
2019-05-12T20:52:58.879Z,71.53
2019-05-12T20:55:23.293Z,69.75
2019-05-12T20:57:52.539Z,67.37
2019-05-12T21:00:14.787Z,67.09
2019-05-12T21:02:44.004Z,67.38
2019-05-12T21:05:14.861Z,68.25
2019-05-12T21:07:35.194Z,70.59
2019-05-12T21:10:04.066Z,74.97
2019-05-12T21:12:29.206Z,76.04
2019-05-12T21:15:12.375Z,76.09
2019-05-12T21:17:39.067Z,76.27
2019-05-12T21:19:56.923Z,75.14
2019-05-12T21:22:16.742Z,77.08
2019-05-12T21:24:43.876Z,77.08
2019-05-12T21:27:18.310Z,77.44
2019-05-12T21:29:38.334Z,78.17
2019-05-12T21:32:12.016Z,76.66
2019-05-12T21:34:34.388Z,77.99
2019-05-12T21:37:04.056Z,78.48
2019-05-12T21:39:25.586Z,79.14
2019-05-12T21:41:54.832Z,78.71
2019-05-12T21:44:19.250Z,79.59
2019-05-12T21:46:57.447Z,80.18
2019-05-12T21:49:15.566Z,79.78
2019-05-12T21:51:40.498Z,79.71
2019-05-12T21:54:07.327Z,80.24
2019-05-12T21:56:37.954Z,81.06
2019-05-12T21:59:00.952Z,81.27
2019-05-12T22:01:27.778Z,81.18
2019-05-12T22:04:01.957Z,80.16
2019-05-12T22:06:24.688Z,78.56
2019-05-12T22:08:55.475Z,76.18
2019-05-12T22:11:15.334Z,77.16
2019-05-12T22:13:46.894Z,77.29
2019-05-12T22:16:08.961Z,76.53
2019-05-12T22:18:35.776Z,76.28
2019-05-12T22:21:06.495Z,75.34
2019-05-12T22:23:29.410Z,74.83
2019-05-12T22:26:00.212Z,74.82
2019-05-12T22:28:23.905Z,74.95
2019-05-12T22:30:49.870Z,75.20
2019-05-12T22:33:16.683Z,74.73
2019-05-12T22:35:44.340Z,74.74
2019-05-12T22:38:16.623Z,76.08
2019-05-12T22:40:37.154Z,75.47
2019-05-12T22:43:06.951Z,75.51
2019-05-12T22:45:36.080Z,76.36
2019-05-12T22:47:59.119Z,76.07
2019-05-12T22:50:27.181Z,76.81
2019-05-12T22:52:52.983Z,77.18
2019-05-12T22:55:21.111Z,77.28
2019-05-12T22:57:44.797Z,78.17
2019-05-12T23:00:13.586Z,78.42
2019-05-12T23:02:38.417Z,77.55
2019-05-12T23:05:05.228Z,77.29
2019-05-12T23:07:33.128Z,76.94
2019-05-12T23:10:00.456Z,76.53
2019-05-12T23:12:25.694Z,76.33
2019-05-12T23:14:54.074Z,76.45
2019-05-12T23:17:19.359Z,74.42
2019-05-12T23:19:51.355Z,75.22
2019-05-12T23:22:14.206Z,78.00
2019-05-12T23:24:40.806Z,78.05
2019-05-12T23:27:08.848Z,78.79
2019-05-12T23:29:33.964Z,77.04
2019-05-12T23:32:00.825Z,76.43
2019-05-12T23:34:27.147Z,76.42
2019-05-12T23:36:56.863Z,77.33
2019-05-12T23:39:20.787Z,78.72
2019-05-12T23:41:47.630Z,79.18
2019-05-12T23:44:14.434Z,79.36
2019-05-12T23:46:43.603Z,80.23
2019-05-12T23:49:08.052Z,80.49
2019-05-12T23:51:34.851Z,80.14
2019-05-12T23:54:03.627Z,79.93
2019-05-12T23:56:28.466Z,79.96
2019-05-12T23:58:55.275Z,80.49
